logo tempoitalia

Diretta Meteo Catania-Sigonella, Italiasabato 20 luglio ore 14:55

Mappa
Sereno 34 °C Sereno 24 Ore: T.min 22 T.max 34
Ponente Est Km/h 31.5 Punto di rugiada: 14 °C Umidità: 30% Visibilità: 10 Km
Il sole sorge alle: 05:54 Il sole tramonta alle: 20:19
20 Luglio 2024 14:55 tempo osservato: Sereno Sereno 34 30 1009 vento: Nord E 31.5
20 Luglio 2024 13:55 tempo osservato: Sereno Sereno 34 30 1010 vento: Nord E 29.6
20 Luglio 2024 12:55 tempo osservato: Sereno Sereno 34 24 1010 vento: Nord E 20.3
20 Luglio 2024 11:55 tempo osservato: Sereno Sereno 34 24 1010 vento: Nord E 22.2
20 Luglio 2024 10:55 tempo osservato: Sereno Sereno 33 21 1011 vento: Nord E 7.4
20 Luglio 2024 09:55 tempo osservato: Sereno Sereno 30 40 1011 vento: Nord N 3.7
20 Luglio 2024 08:55 tempo osservato: Sereno Sereno 27 69 1012 vento: Nord O 9.3
20 Luglio 2024 07:55 tempo osservato: Sereno Sereno 24 69 1012 vento: Nord N 3.7
20 Luglio 2024 06:55 tempo osservato: Sereno Sereno 22 100 1011 vento: Nord O 7.4
20 Luglio 2024 05:55 tempo osservato: Sereno Sereno 23 100 1011 vento: Nord O 7.4
20 Luglio 2024 04:55 tempo osservato: Sereno Sereno 24 100 1012 vento: Nord N 3.7
20 Luglio 2024 03:55 tempo osservato: Sereno Sereno 24 100 1011 vento: Nord N 5.5
20 Luglio 2024 02:55 tempo osservato: Sereno Sereno 25 100 1012 vento: Nord O 7.4
20 Luglio 2024 01:55 tempo osservato: Sereno Sereno 25 100 1013 vento: Nord O/NO 7.4
20 Luglio 2024 00:55 tempo osservato: Sereno Sereno 26 100 1013 vento: Nord N 5.5
19 Luglio 2024 23:55 tempo osservato: Sereno Sereno 26 100 1014 vento: Nord N 3.7
19 Luglio 2024 22:55 tempo osservato: Sereno Sereno 27 100 1014 vento: Nord E/SE 13
19 Luglio 2024 21:55 tempo osservato: Sereno Sereno 28 100 1013 vento: Nord E 13
19 Luglio 2024 20:55 tempo osservato: Sereno Sereno 28 94 1013 vento: Nord E 20.3
19 Luglio 2024 19:55 tempo osservato: Sereno Sereno 31 52 1012 vento: Nord E 22.2
19 Luglio 2024 18:55 tempo osservato: Sereno Sereno 31 52 1012 vento: Nord E/NE 29.6
19 Luglio 2024 17:55 tempo osservato: Sereno Sereno 33 46 1013 vento: Nord E 27.8
19 Luglio 2024 16:55 tempo osservato: Sereno Sereno 34 46 1013 vento: Nord E 27.8